Terminal Aerodrome Forecast
Issued by NWS

Home | Current Version | Previous Version | Text Only | Print | Product List | Glossary Off
Versions: 1 2 3 4 5 6 7 8 9 10 11 12 13 14 15 16 17 18 19 20

000
FTUS41 KCLE 181000 AAA
TAFFDY
TAF AMD
KFDY 181007Z 1810/1906 05005KT P6SM OVC050
     FM181400 08005KT P6SM OVC050
     FM181600 08006KT P6SM VCSH OVC050
     FM182000 05006KT P6SM BKN100
     FM182300 VRB03KT P6SM BKN250=

USA.gov is the U.S. government's official web portal to all federal, state and local government web resources and services.